sensor_id;sensor_type;location;lat;lon;timestamp;P1;P2;P0
62778;PMS7003;48821;48.796;2.396;2023-08-01T00:00:04;4.00;4.00;3.00
62778;PMS7003;48821;48.796;2.396;2023-08-01T00:01:17;6.67;4.33;3.00
62778;PMS7003;48821;48.796;2.396;2023-08-01T00:02:28;6.67;4.00;3.00
62778;PMS7003;48821;48.796;2.396;2023-08-01T00:03:39;4.00;3.33;2.00
62778;PMS7003;48821;48.796;2.396;2023-08-01T00:04:50;4.67;3.67;2.00
62778;PMS7003;48821;48.796;2.396;2023-08-01T00:06:01;3.00;3.00;2.00
62778;PMS7003;48821;48.796;2.396;2023-08-01T00:07:11;7.33;3.00;2.00
62778;PMS7003;48821;48.796;2.396;2023-08-01T00:08:22;4.67;4.67;3.33
62778;PMS7003;48821;48.796;2.396;2023-08-01T00:09:33;5.00;4.33;3.00
62778;PMS7003;48821;48.796;2.396;2023-08-01T00:10:44;3.67;3.67;2.00
62778;PMS7003;48821;48.796;2.396;2023-08-01T00:11:55;5.00;4.00;3.00
62778;PMS7003;48821;48.796;2.396;2023-08-01T00:13:06;2.33;2.00;1.00
62778;PMS7003;48821;48.796;2.396;2023-08-01T00:14:17;6.00;3.67;2.67
62778;PMS7003;48821;48.796;2.396;2023-08-01T00:15:30;4.00;4.00;3.00
62778;PMS7003;48821;48.796;2.396;2023-08-01T00:16:41;4.33;3.00;2.00
62778;PMS7003;48821;48.796;2.396;2023-08-01T00:17:52;5.00;4.33;3.00
62778;PMS7003;48821;48.796;2.396;2023-08-01T00:19:02;4.67;3.00;2.00
62778;PMS7003;48821;48.796;2.396;2023-08-01T00:20:13;3.33;3.33;2.67
62778;PMS7003;48821;48.796;2.396;2023-08-01T00:21:24;6.33;4.00;3.00
62778;PMS7003;48821;48.796;2.396;2023-08-01T00:22:35;5.00;5.00;3.00
62778;PMS7003;48821;48.796;2.396;2023-08-01T00:23:46;4.00;4.00;2.67
62778;PMS7003;48821;48.796;2.396;2023-08-01T00:24:57;3.00;3.00;2.00
62778;PMS7003;48821;48.796;2.396;2023-08-01T00:26:08;6.00;4.00;2.00
62778;PMS7003;48821;48.796;2.396;2023-08-01T00:27:19;4.00;4.00;3.00
62778;PMS7003;48821;48.796;2.396;2023-08-01T00:28:30;4.00;3.00;2.67
62778;PMS7003;48821;48.796;2.396;2023-08-01T00:29:41;5.00;4.00;3.00
62778;PMS7003;48821;48.796;2.396;2023-08-01T00:31:01;4.00;4.00;3.67
62778;PMS7003;48821;48.796;2.396;2023-08-01T00:32:20;3.33;3.33;3.00
62778;PMS7003;48821;48.796;2.396;2023-08-01T00:33:32;3.67;3.67;3.00
62778;PMS7003;48821;48.796;2.396;2023-08-01T00:34:42;3.00;3.00;2.00
62778;PMS7003;48821;48.796;2.396;2023-08-01T00:35:53;3.67;3.67;3.00
62778;PMS7003;48821;48.796;2.396;2023-08-01T00:37:04;6.67;4.00;3.00
62778;PMS7003;48821;48.796;2.396;2023-08-01T00:38:15;3.67;3.00;2.00
62778;PMS7003;48821;48.796;2.396;2023-08-01T00:39:26;4.00;4.00;3.00
62778;PMS7003;48821;48.796;2.396;2023-08-01T00:40:37;4.00;4.00;3.00
62778;PMS7003;48821;48.796;2.396;2023-08-01T00:41:48;5.67;4.00;4.00
62778;PMS7003;48821;48.796;2.396;2023-08-01T00:42:59;4.00;4.00;3.00
62778;PMS7003;48821;48.796;2.396;2023-08-01T00:44:09;4.00;2.00;2.00
62778;PMS7003;48821;48.796;2.396;2023-08-01T00:45:20;4.00;3.00;2.00
62778;PMS7003;48821;48.796;2.396;2023-08-01T00:46:32;3.00;3.00;2.00
62778;PMS7003;48821;48.796;2.396;2023-08-01T00:47:45;3.00;3.00;2.00
62778;PMS7003;48821;48.796;2.396;2023-08-01T00:48:56;6.33;4.00;3.00
62778;PMS7003;48821;48.796;2.396;2023-08-01T00:50:08;3.33;3.00;2.67
62778;PMS7003;48821;48.796;2.396;2023-08-01T00:51:19;5.00;3.67;3.00
62778;PMS7003;48821;48.796;2.396;2023-08-01T00:52:30;3.00;3.00;2.67
62778;PMS7003;48821;48.796;2.396;2023-08-01T00:53:40;2.33;2.33;2.00
62778;PMS7003;48821;48.796;2.396;2023-08-01T00:54:51;3.67;3.67;3.00
62778;PMS7003;48821;48.796;2.396;2023-08-01T00:56:02;3.33;3.33;2.33
62778;PMS7003;48821;48.796;2.396;2023-08-01T00:57:13;2.33;2.33;2.00
62778;PMS7003;48821;48.796;2.396;2023-08-01T00:58:24;4.33;4.33;3.33
62778;PMS7003;48821;48.796;2.396;2023-08-01T00:59:35;4.00;4.00;3.00
62778;PMS7003;48821;48.796;2.396;2023-08-01T01:00:46;3.00;3.00;2.67
62778;PMS7003;48821;48.796;2.396;2023-08-01T01:01:57;3.00;2.67;2.00
62778;PMS7003;48821;48.796;2.396;2023-08-01T01:03:09;3.00;3.00;2.00
62778;PMS7003;48821;48.796;2.396;2023-08-01T01:04:20;2.33;2.33;2.00
62778;PMS7003;48821;48.796;2.396;2023-08-01T01:05:35;4.33;3.33;2.33
62778;PMS7003;48821;48.796;2.396;2023-08-01T01:06:50;7.67;4.33;2.67
62778;PMS7003;48821;48.796;2.396;2023-08-01T01:08:08;3.50;2.83;2.00
62778;PMS7003;48821;48.796;2.396;2023-08-01T01:09:22;2.17;1.00;1.00
62778;PMS7003;48821;48.796;2.396;2023-08-01T01:10:32;4.00;4.00;2.00
62778;PMS7003;48821;48.796;2.396;2023-08-01T01:11:44;1.00;1.00;1.00
62778;PMS7003;48821;48.796;2.396;2023-08-01T01:12:54;2.67;2.67;1.67
62778;PMS7003;48821;48.796;2.396;2023-08-01T01:14:05;2.00;2.00;2.00
62778;PMS7003;48821;48.796;2.396;2023-08-01T01:15:16;1.67;1.67;1.33
62778;PMS7003;48821;48.796;2.396;2023-08-01T01:16:27;2.00;2.00;1.00
62778;PMS7003;48821;48.796;2.396;2023-08-01T01:17:39;3.00;3.00;2.00
62778;PMS7003;48821;48.796;2.396;2023-08-01T01:18:49;5.67;4.00;2.00
62778;PMS7003;48821;48.796;2.396;2023-08-01T01:20:00;5.00;2.33;2.00
62778;PMS7003;48821;48.796;2.396;2023-08-01T01:21:12;2.00;1.00;1.00
62778;PMS7003;48821;48.796;2.396;2023-08-01T01:22:22;4.00;2.00;1.00
62778;PMS7003;48821;48.796;2.396;2023-08-01T01:23:33;3.00;3.00;2.00
62778;PMS7003;48821;48.796;2.396;2023-08-01T01:24:44;3.33;2.33;2.00
62778;PMS7003;48821;48.796;2.396;2023-08-01T01:25:58;2.00;2.00;1.17
62778;PMS7003;48821;48.796;2.396;2023-08-01T01:27:10;3.00;2.00;1.33
62778;PMS7003;48821;48.796;2.396;2023-08-01T01:28:25;2.00;2.00;1.83
62778;PMS7003;48821;48.796;2.396;2023-08-01T01:29:39;1.00;0.33;0.17
62778;PMS7003;48821;48.796;2.396;2023-08-01T01:30:51;2.67;2.67;2.00
62778;PMS7003;48821;48.796;2.396;2023-08-01T01:32:03;2.00;2.00;2.00
62778;PMS7003;48821;48.796;2.396;2023-08-01T01:33:15;3.00;2.00;1.00
62778;PMS7003;48821;48.796;2.396;2023-08-01T01:34:27;4.67;2.00;1.00
62778;PMS7003;48821;48.796;2.396;2023-08-01T01:35:38;2.00;2.00;1.33
62778;PMS7003;48821;48.796;2.396;2023-08-01T01:36:49;2.00;2.00;2.00
62778;PMS7003;48821;48.796;2.396;2023-08-01T01:38:00;3.00;2.67;1.67
62778;PMS7003;48821;48.796;2.396;2023-08-01T01:39:13;2.67;2.00;1.00
62778;PMS7003;48821;48.796;2.396;2023-08-01T01:40:24;3.33;2.33;2.00
62778;PMS7003;48821;48.796;2.396;2023-08-01T01:41:35;1.00;1.00;1.00
62778;PMS7003;48821;48.796;2.396;2023-08-01T01:42:48;1.67;1.67;1.00
62778;PMS7003;48821;48.796;2.396;2023-08-01T01:43:59;1.00;1.00;1.00
62778;PMS7003;48821;48.796;2.396;2023-08-01T01:45:10;2.00;2.00;1.33
62778;PMS7003;48821;48.796;2.396;2023-08-01T01:46:22;5.00;2.00;1.00
62778;PMS7003;48821;48.796;2.396;2023-08-01T01:47:35;0.00;0.00;0.00
62778;PMS7003;48821;48.796;2.396;2023-08-01T01:48:48;1.17;1.17;0.50
62778;PMS7003;48821;48.796;2.396;2023-08-01T01:50:01;1.00;1.00;1.00
62778;PMS7003;48821;48.796;2.396;2023-08-01T01:51:16;0.83;0.83;0.67
62778;PMS7003;48821;48.796;2.396;2023-08-01T01:52:29;2.17;1.83;0.83
62778;PMS7003;48821;48.796;2.396;2023-08-01T01:53:42;2.67;1.67;1.00
62778;PMS7003;48821;48.796;2.396;2023-08-01T01:54:55;1.00;1.00;0.83
62778;PMS7003;48821;48.796;2.396;2023-08-01T01:56:08;2.00;1.00;0.83
62778;PMS7003;48821;48.796;2.396;2023-08-01T01:57:22;1.00;1.00;1.00
62778;PMS7003;48821;48.796;2.396;2023-08-01T01:58:35;1.17;1.17;1.00
62778;PMS7003;48821;48.796;2.396;2023-08-01T01:59:48;0.00;0.00;0.00
62778;PMS7003;48821;48.796;2.396;2023-08-01T02:01:01;1.00;0.50;0.17
62778;PMS7003;48821;48.796;2.396;2023-08-01T02:02:14;0.00;0.00;0.00
62778;PMS7003;48821;48.796;2.396;2023-08-01T02:03:27;0.50;0.50;0.00
62778;PMS7003;48821;48.796;2.396;2023-08-01T02:04:41;1.00;0.00;0.00
62778;PMS7003;48821;48.796;2.396;2023-08-01T02:05:54;0.00;0.00;0.00
62778;PMS7003;48821;48.796;2.396;2023-08-01T02:07:07;0.00;0.00;0.00
62778;PMS7003;48821;48.796;2.396;2023-08-01T02:08:21;1.00;0.00;0.00
62778;PMS7003;48821;48.796;2.396;2023-08-01T02:09:34;0.00;0.00;0.00
62778;PMS7003;48821;48.796;2.396;2023-08-01T02:10:47;0.00;0.00;0.00
62778;PMS7003;48821;48.796;2.396;2023-08-01T02:12:01;0.00;0.00;0.00
62778;PMS7003;48821;48.796;2.396;2023-08-01T02:13:14;0.00;0.00;0.00
62778;PMS7003;48821;48.796;2.396;2023-08-01T02:14:27;0.00;0.00;0.00
62778;PMS7003;48821;48.796;2.396;2023-08-01T02:15:40;0.00;0.00;0.00
62778;PMS7003;48821;48.796;2.396;2023-08-01T02:16:53;1.00;0.00;0.00
62778;PMS7003;48821;48.796;2.396;2023-08-01T02:18:06;0.83;0.00;0.00
62778;PMS7003;48821;48.796;2.396;2023-08-01T02:19:20;0.00;0.00;0.00
62778;PMS7003;48821;48.796;2.396;2023-08-01T02:20:33;0.00;0.00;0.00
62778;PMS7003;48821;48.796;2.396;2023-08-01T02:21:46;0.00;0.00;0.00
62778;PMS7003;48821;48.796;2.396;2023-08-01T02:22:59;0.00;0.00;0.00
62778;PMS7003;48821;48.796;2.396;2023-08-01T02:24:12;0.00;0.00;0.00
62778;PMS7003;48821;48.796;2.396;2023-08-01T02:25:25;0.00;0.00;0.00
62778;PMS7003;48821;48.796;2.396;2023-08-01T02:26:39;0.00;0.00;0.00
62778;PMS7003;48821;48.796;2.396;2023-08-01T02:27:52;0.00;0.00;0.00
62778;PMS7003;48821;48.796;2.396;2023-08-01T02:29:05;0.00;0.00;0.00
62778;PMS7003;48821;48.796;2.396;2023-08-01T02:30:18;0.00;0.00;0.00
62778;PMS7003;48821;48.796;2.396;2023-08-01T02:31:31;0.00;0.00;0.00
62778;PMS7003;48821;48.796;2.396;2023-08-01T02:32:44;0.00;0.00;0.00
62778;PMS7003;48821;48.796;2.396;2023-08-01T02:33:58;0.00;0.00;0.00
62778;PMS7003;48821;48.796;2.396;2023-08-01T02:35:11;0.00;0.00;0.00
62778;PMS7003;48821;48.796;2.396;2023-08-01T02:36:24;0.50;0.00;0.00
62778;PMS7003;48821;48.796;2.396;2023-08-01T02:37:37;0.17;0.00;0.00
62778;PMS7003;48821;48.796;2.396;2023-08-01T02:38:50;0.00;0.00;0.00
62778;PMS7003;48821;48.796;2.396;2023-08-01T02:40:04;0.00;0.00;0.00
62778;PMS7003;48821;48.796;2.396;2023-08-01T02:41:20;0.67;0.00;0.00
62778;PMS7003;48821;48.796;2.396;2023-08-01T02:42:33;0.00;0.00;0.00
62778;PMS7003;48821;48.796;2.396;2023-08-01T02:43:46;0.33;0.00;0.00
62778;PMS7003;48821;48.796;2.396;2023-08-01T02:44:59;0.00;0.00;0.00
62778;PMS7003;48821;48.796;2.396;2023-08-01T02:46:13;0.83;0.00;0.00
62778;PMS7003;48821;48.796;2.396;2023-08-01T02:47:26;0.67;0.00;0.00
62778;PMS7003;48821;48.796;2.396;2023-08-01T02:48:39;0.00;0.00;0.00
62778;PMS7003;48821;48.796;2.396;2023-08-01T02:49:52;0.00;0.00;0.00
62778;PMS7003;48821;48.796;2.396;2023-08-01T02:51:05;0.00;0.00;0.00
62778;PMS7003;48821;48.796;2.396;2023-08-01T02:52:21;0.00;0.00;0.00
62778;PMS7003;48821;48.796;2.396;2023-08-01T02:53:35;0.00;0.00;0.00
62778;PMS7003;48821;48.796;2.396;2023-08-01T02:54:49;0.67;0.17;0.00
62778;PMS7003;48821;48.796;2.396;2023-08-01T02:56:02;0.00;0.00;0.00
62778;PMS7003;48821;48.796;2.396;2023-08-01T02:57:17;1.17;0.00;0.00
62778;PMS7003;48821;48.796;2.396;2023-08-01T02:58:30;0.50;0.50;0.50
62778;PMS7003;48821;48.796;2.396;2023-08-01T02:59:44;0.67;0.00;0.00
62778;PMS7003;48821;48.796;2.396;2023-08-01T03:00:58;2.00;0.67;0.00
62778;PMS7003;48821;48.796;2.396;2023-08-01T03:02:11;0.00;0.00;0.00
62778;PMS7003;48821;48.796;2.396;2023-08-01T03:03:24;0.00;0.00;0.00
62778;PMS7003;48821;48.796;2.396;2023-08-01T03:04:37;0.33;0.33;0.33
62778;PMS7003;48821;48.796;2.396;2023-08-01T03:05:51;0.50;0.50;0.17
62778;PMS7003;48821;48.796;2.396;2023-08-01T03:07:05;1.00;1.00;1.00
62778;PMS7003;48821;48.796;2.396;2023-08-01T03:08:18;1.00;1.00;1.00
62778;PMS7003;48821;48.796;2.396;2023-08-01T03:09:32;0.83;0.83;0.00
62778;PMS7003;48821;48.796;2.396;2023-08-01T03:10:45;0.00;0.00;0.00
62778;PMS7003;48821;48.796;2.396;2023-08-01T03:11:58;0.00;0.00;0.00
62778;PMS7003;48821;48.796;2.396;2023-08-01T03:13:11;1.67;0.00;0.00
62778;PMS7003;48821;48.796;2.396;2023-08-01T03:14:25;1.00;0.00;0.00
62778;PMS7003;48821;48.796;2.396;2023-08-01T03:15:38;0.00;0.00;0.00
62778;PMS7003;48821;48.796;2.396;2023-08-01T03:16:51;0.00;0.00;0.00
62778;PMS7003;48821;48.796;2.396;2023-08-01T03:18:04;0.00;0.00;0.00
62778;PMS7003;48821;48.796;2.396;2023-08-01T03:19:17;0.00;0.00;0.00
62778;PMS7003;48821;48.796;2.396;2023-08-01T03:20:30;0.00;0.00;0.00
62778;PMS7003;48821;48.796;2.396;2023-08-01T03:21:44;2.00;0.00;0.00
62778;PMS7003;48821;48.796;2.396;2023-08-01T03:22:57;1.00;0.00;0.00
62778;PMS7003;48821;48.796;2.396;2023-08-01T03:24:10;0.00;0.00;0.00
62778;PMS7003;48821;48.796;2.396;2023-08-01T03:25:24;0.00;0.00;0.00
62778;PMS7003;48821;48.796;2.396;2023-08-01T03:26:37;0.00;0.00;0.00
62778;PMS7003;48821;48.796;2.396;2023-08-01T03:27:50;0.00;0.00;0.00
62778;PMS7003;48821;48.796;2.396;2023-08-01T03:29:03;0.00;0.00;0.00
62778;PMS7003;48821;48.796;2.396;2023-08-01T03:30:18;0.00;0.00;0.00
62778;PMS7003;48821;48.796;2.396;2023-08-01T03:31:31;0.00;0.00;0.00
62778;PMS7003;48821;48.796;2.396;2023-08-01T03:32:44;0.00;0.00;0.00
62778;PMS7003;48821;48.796;2.396;2023-08-01T03:33:57;0.00;0.00;0.00
62778;PMS7003;48821;48.796;2.396;2023-08-01T03:35:11;0.83;0.00;0.00
62778;PMS7003;48821;48.796;2.396;2023-08-01T03:36:24;0.17;0.17;0.00
62778;PMS7003;48821;48.796;2.396;2023-08-01T03:37:38;0.00;0.00;0.00
62778;PMS7003;48821;48.796;2.396;2023-08-01T03:38:51;0.00;0.00;0.00
62778;PMS7003;48821;48.796;2.396;2023-08-01T03:40:05;0.00;0.00;0.00
62778;PMS7003;48821;48.796;2.396;2023-08-01T03:41:21;0.00;0.00;0.00
62778;PMS7003;48821;48.796;2.396;2023-08-01T03:42:34;0.00;0.00;0.00
62778;PMS7003;48821;48.796;2.396;2023-08-01T03:43:48;1.50;0.67;0.33
62778;PMS7003;48821;48.796;2.396;2023-08-01T03:45:01;0.17;0.00;0.00
62778;PMS7003;48821;48.796;2.396;2023-08-01T03:46:14;0.00;0.00;0.00
62778;PMS7003;48821;48.796;2.396;2023-08-01T03:47:28;0.00;0.00;0.00
62778;PMS7003;48821;48.796;2.396;2023-08-01T03:48:41;0.00;0.00;0.00
62778;PMS7003;48821;48.796;2.396;2023-08-01T03:49:55;0.00;0.00;0.00
62778;PMS7003;48821;48.796;2.396;2023-08-01T03:51:09;0.00;0.00;0.00
62778;PMS7003;48821;48.796;2.396;2023-08-01T03:52:22;0.00;0.00;0.00
62778;PMS7003;48821;48.796;2.396;2023-08-01T03:53:35;1.00;1.00;0.50
62778;PMS7003;48821;48.796;2.396;2023-08-01T03:54:49;0.00;0.00;0.00
62778;PMS7003;48821;48.796;2.396;2023-08-01T03:56:02;0.33;0.33;0.00
62778;PMS7003;48821;48.796;2.396;2023-08-01T03:57:15;0.00;0.00;0.00
62778;PMS7003;48821;48.796;2.396;2023-08-01T03:58:28;0.00;0.00;0.00
62778;PMS7003;48821;48.796;2.396;2023-08-01T03:59:41;0.00;0.00;0.00
62778;PMS7003;48821;48.796;2.396;2023-08-01T04:00:55;0.17;0.00;0.00
62778;PMS7003;48821;48.796;2.396;2023-08-01T04:02:08;0.00;0.00;0.00
62778;PMS7003;48821;48.796;2.396;2023-08-01T04:03:21;0.33;0.00;0.00
62778;PMS7003;48821;48.796;2.396;2023-08-01T04:04:34;2.00;1.00;0.17
62778;PMS7003;48821;48.796;2.396;2023-08-01T04:05:48;1.00;1.00;0.00
62778;PMS7003;48821;48.796;2.396;2023-08-01T04:07:01;0.33;0.00;0.00
62778;PMS7003;48821;48.796;2.396;2023-08-01T04:08:14;2.00;1.00;1.00
62778;PMS7003;48821;48.796;2.396;2023-08-01T04:09:27;1.50;1.00;1.00
62778;PMS7003;48821;48.796;2.396;2023-08-01T04:10:41;1.00;1.00;1.00
62778;PMS7003;48821;48.796;2.396;2023-08-01T04:11:54;1.00;0.67;0.67
62778;PMS7003;48821;48.796;2.396;2023-08-01T04:13:07;1.33;1.33;1.00
62778;PMS7003;48821;48.796;2.396;2023-08-01T04:14:20;1.17;0.83;0.50
62778;PMS7003;48821;48.796;2.396;2023-08-01T04:15:33;1.00;1.00;1.00
62778;PMS7003;48821;48.796;2.396;2023-08-01T04:16:46;0.33;0.33;0.00
62778;PMS7003;48821;48.796;2.396;2023-08-01T04:18:00;1.50;1.00;1.00
62778;PMS7003;48821;48.796;2.396;2023-08-01T04:19:13;1.17;1.17;1.00
62778;PMS7003;48821;48.796;2.396;2023-08-01T04:20:26;1.00;1.00;1.00
62778;PMS7003;48821;48.796;2.396;2023-08-01T04:21:39;1.67;1.67;1.00
62778;PMS7003;48821;48.796;2.396;2023-08-01T04:22:52;2.00;1.00;0.17
62778;PMS7003;48821;48.796;2.396;2023-08-01T04:24:05;2.00;1.00;1.00
62778;PMS7003;48821;48.796;2.396;2023-08-01T04:25:19;0.83;0.83;0.67
62778;PMS7003;48821;48.796;2.396;2023-08-01T04:26:32;1.00;1.00;1.00
62778;PMS7003;48821;48.796;2.396;2023-08-01T04:27:45;1.00;1.00;1.00
62778;PMS7003;48821;48.796;2.396;2023-08-01T04:28:58;2.00;1.00;1.00
62778;PMS7003;48821;48.796;2.396;2023-08-01T04:30:11;2.00;0.50;0.33
62778;PMS7003;48821;48.796;2.396;2023-08-01T04:31:25;1.50;0.50;0.00
62778;PMS7003;48821;48.796;2.396;2023-08-01T04:32:38;1.00;1.00;0.33
62778;PMS7003;48821;48.796;2.396;2023-08-01T04:33:51;1.17;1.00;0.50
62778;PMS7003;48821;48.796;2.396;2023-08-01T04:35:04;1.00;1.00;1.00
62778;PMS7003;48821;48.796;2.396;2023-08-01T04:36:18;1.00;1.00;0.50
62778;PMS7003;48821;48.796;2.396;2023-08-01T04:37:31;0.00;0.00;0.00
62778;PMS7003;48821;48.796;2.396;2023-08-01T04:38:44;0.50;0.50;0.50
62778;PMS7003;48821;48.796;2.396;2023-08-01T04:39:57;1.00;1.00;1.00
62778;PMS7003;48821;48.796;2.396;2023-08-01T04:41:10;0.50;0.50;0.33
62778;PMS7003;48821;48.796;2.396;2023-08-01T04:42:24;2.17;1.67;1.17
62778;PMS7003;48821;48.796;2.396;2023-08-01T04:43:37;1.00;1.00;1.00
62778;PMS7003;48821;48.796;2.396;2023-08-01T04:44:50;2.83;1.00;1.00
62778;PMS7003;48821;48.796;2.396;2023-08-01T04:46:04;1.83;1.00;1.00
62778;PMS7003;48821;48.796;2.396;2023-08-01T04:47:18;1.17;1.17;0.83
62778;PMS7003;48821;48.796;2.396;2023-08-01T04:48:31;1.00;1.00;1.00
62778;PMS7003;48821;48.796;2.396;2023-08-01T04:49:45;1.50;1.00;1.00
62778;PMS7003;48821;48.796;2.396;2023-08-01T04:50:55;4.67;2.00;1.00
62778;PMS7003;48821;48.796;2.396;2023-08-01T04:52:06;1.33;1.00;1.00
62778;PMS7003;48821;48.796;2.396;2023-08-01T04:53:20;2.00;2.00;2.00
62778;PMS7003;48821;48.796;2.396;2023-08-01T04:54:33;2.00;1.00;0.50
62778;PMS7003;48821;48.796;2.396;2023-08-01T04:55:46;1.00;1.00;1.00
62778;PMS7003;48821;48.796;2.396;2023-08-01T04:56:59;1.00;1.00;1.00
62778;PMS7003;48821;48.796;2.396;2023-08-01T04:58:12;1.00;1.00;1.00
62778;PMS7003;48821;48.796;2.396;2023-08-01T04:59:25;2.33;1.00;1.00
62778;PMS7003;48821;48.796;2.396;2023-08-01T05:00:41;2.00;2.00;1.17
62778;PMS7003;48821;48.796;2.396;2023-08-01T05:01:55;2.00;1.33;1.00
62778;PMS7003;48821;48.796;2.396;2023-08-01T05:03:08;1.00;1.00;1.00
62778;PMS7003;48821;48.796;2.396;2023-08-01T05:04:21;2.00;0.67;0.00
62778;PMS7003;48821;48.796;2.396;2023-08-01T05:05:34;2.33;1.50;1.00
62778;PMS7003;48821;48.796;2.396;2023-08-01T05:06:47;1.00;1.00;1.00
62778;PMS7003;48821;48.796;2.396;2023-08-01T05:07:58;3.67;2.00;1.00
62778;PMS7003;48821;48.796;2.396;2023-08-01T05:09:09;1.00;1.00;1.00
62778;PMS7003;48821;48.796;2.396;2023-08-01T05:10:22;2.00;1.33;1.00
62778;PMS7003;48821;48.796;2.396;2023-08-01T05:11:35;1.33;1.33;1.00
62778;PMS7003;48821;48.796;2.396;2023-08-01T05:12:48;1.67;1.00;1.00
62778;PMS7003;48821;48.796;2.396;2023-08-01T05:14:02;3.00;1.00;1.00
62778;PMS7003;48821;48.796;2.396;2023-08-01T05:15:15;1.17;1.17;1.00
62778;PMS7003;48821;48.796;2.396;2023-08-01T05:16:28;1.00;1.00;1.00
62778;PMS7003;48821;48.796;2.396;2023-08-01T05:17:42;1.83;1.83;1.00
62778;PMS7003;48821;48.796;2.396;2023-08-01T05:18:55;2.00;2.00;1.17
62778;PMS7003;48821;48.796;2.396;2023-08-01T05:20:08;2.00;2.00;1.50
62778;PMS7003;48821;48.796;2.396;2023-08-01T05:21:19;2.00;2.00;2.00
62778;PMS7003;48821;48.796;2.396;2023-08-01T05:22:30;1.00;1.00;0.33
62778;PMS7003;48821;48.796;2.396;2023-08-01T05:23:43;2.00;2.00;2.00
62778;PMS7003;48821;48.796;2.396;2023-08-01T05:24:56;1.00;0.00;0.00
62778;PMS7003;48821;48.796;2.396;2023-08-01T05:26:09;3.00;2.83;2.67
62778;PMS7003;48821;48.796;2.396;2023-08-01T05:27:22;2.00;1.00;1.00
62778;PMS7003;48821;48.796;2.396;2023-08-01T05:28:36;2.00;1.00;0.00
62778;PMS7003;48821;48.796;2.396;2023-08-01T05:29:46;2.00;2.00;1.00
62778;PMS7003;48821;48.796;2.396;2023-08-01T05:30:57;3.00;1.33;1.00
62778;PMS7003;48821;48.796;2.396;2023-08-01T05:32:10;1.17;1.17;1.00
62778;PMS7003;48821;48.796;2.396;2023-08-01T05:33:24;1.83;1.17;1.00
62778;PMS7003;48821;48.796;2.396;2023-08-01T05:34:37;1.00;1.00;0.67
62778;PMS7003;48821;48.796;2.396;2023-08-01T05:35:50;3.00;1.50;1.17
62778;PMS7003;48821;48.796;2.396;2023-08-01T05:37:03;0.00;0.00;0.00
62778;PMS7003;48821;48.796;2.396;2023-08-01T05:38:17;2.00;2.00;1.50
62778;PMS7003;48821;48.796;2.396;2023-08-01T05:39:30;2.33;1.33;1.00
62778;PMS7003;48821;48.796;2.396;2023-08-01T05:40:43;2.00;2.00;1.50
62778;PMS7003;48821;48.796;2.396;2023-08-01T05:41:56;2.00;2.00;1.33
62778;PMS7003;48821;48.796;2.396;2023-08-01T05:43:09;1.50;1.50;1.50
62778;PMS7003;48821;48.796;2.396;2023-08-01T05:44:22;2.33;1.17;1.00
62778;PMS7003;48821;48.796;2.396;2023-08-01T05:45:36;1.50;1.00;1.00
62778;PMS7003;48821;48.796;2.396;2023-08-01T05:46:46;2.00;2.00;2.00
62778;PMS7003;48821;48.796;2.396;2023-08-01T19:11:23;4.00;3.00;2.00
62778;PMS7003;48821;48.796;2.396;2023-08-01T19:12:34;7.00;4.00;3.00
62778;PMS7003;48821;48.796;2.396;2023-08-01T19:13:44;4.67;4.67;3.00
62778;PMS7003;48821;48.796;2.396;2023-08-01T19:14:55;2.00;2.00;2.00
62778;PMS7003;48821;48.796;2.396;2023-08-01T19:16:06;4.33;3.00;2.33
62778;PMS7003;48821;48.796;2.396;2023-08-01T19:17:17;3.00;3.00;2.00
62778;PMS7003;48821;48.796;2.396;2023-08-01T19:18:29;3.33;3.33;2.33
62778;PMS7003;48821;48.796;2.396;2023-08-01T19:19:41;3.00;2.67;2.00
62778;PMS7003;48821;48.796;2.396;2023-08-01T19:20:52;3.00;3.00;2.00
62778;PMS7003;48821;48.796;2.396;2023-08-01T19:22:03;3.67;3.00;2.33
62778;PMS7003;48821;48.796;2.396;2023-08-01T19:23:14;4.00;3.00;2.00
62778;PMS7003;48821;48.796;2.396;2023-08-01T19:24:25;2.00;2.00;2.00
62778;PMS7003;48821;48.796;2.396;2023-08-01T19:25:36;5.00;4.00;3.00
62778;PMS7003;48821;48.796;2.396;2023-08-01T19:26:47;4.00;3.00;2.00
62778;PMS7003;48821;48.796;2.396;2023-08-01T19:27:57;4.67;3.67;2.33
62778;PMS7003;48821;48.796;2.396;2023-08-01T19:29:08;2.00;2.00;1.00
62778;PMS7003;48821;48.796;2.396;2023-08-01T19:30:19;7.00;5.00;3.00
62778;PMS7003;48821;48.796;2.396;2023-08-01T19:31:30;4.00;4.00;2.33
62778;PMS7003;48821;48.796;2.396;2023-08-01T19:32:41;4.00;3.00;3.00
62778;PMS7003;48821;48.796;2.396;2023-08-01T19:33:53;2.00;2.00;1.50
62778;PMS7003;48821;48.796;2.396;2023-08-01T19:35:04;3.00;3.00;2.00
62778;PMS7003;48821;48.796;2.396;2023-08-01T19:36:16;4.00;3.00;2.00
62778;PMS7003;48821;48.796;2.396;2023-08-01T19:37:27;2.67;2.00;2.00
62778;PMS7003;48821;48.796;2.396;2023-08-01T19:38:37;5.33;2.33;1.33
62778;PMS7003;48821;48.796;2.396;2023-08-01T19:39:48;3.33;3.00;2.33
62778;PMS7003;48821;48.796;2.396;2023-08-01T19:41:00;3.33;3.33;2.00
62778;PMS7003;48821;48.796;2.396;2023-08-01T19:42:10;4.00;3.00;3.00
62778;PMS7003;48821;48.796;2.396;2023-08-01T19:43:22;2.75;2.75;2.25
62778;PMS7003;48821;48.796;2.396;2023-08-01T19:44:35;3.33;3.33;2.50
62778;PMS7003;48821;48.796;2.396;2023-08-01T19:45:46;5.33;2.00;2.00
62778;PMS7003;48821;48.796;2.396;2023-08-01T19:46:57;4.00;4.00;3.00
62778;PMS7003;48821;48.796;2.396;2023-08-01T19:48:09;3.75;2.75;2.00
62778;PMS7003;48821;48.796;2.396;2023-08-01T19:49:21;4.00;4.00;3.00
62778;PMS7003;48821;48.796;2.396;2023-08-01T19:50:32;4.67;3.33;2.33
62778;PMS7003;48821;48.796;2.396;2023-08-01T19:51:42;6.33;4.00;3.00
62778;PMS7003;48821;48.796;2.396;2023-08-01T19:52:53;4.00;3.67;3.00
62778;PMS7003;48821;48.796;2.396;2023-08-01T19:54:04;2.00;2.00;2.00
62778;PMS7003;48821;48.796;2.396;2023-08-01T19:55:15;2.33;2.33;2.00
62778;PMS7003;48821;48.796;2.396;2023-08-01T19:56:26;4.67;4.00;2.33
62778;PMS7003;48821;48.796;2.396;2023-08-01T19:57:37;3.00;3.00;2.67
62778;PMS7003;48821;48.796;2.396;2023-08-01T19:58:48;4.00;3.00;2.00
62778;PMS7003;48821;48.796;2.396;2023-08-01T19:59:59;4.33;3.00;3.00
62778;PMS7003;48821;48.796;2.396;2023-08-01T20:01:10;3.33;3.33;2.00
62778;PMS7003;48821;48.796;2.396;2023-08-01T20:02:20;3.00;3.00;2.00
62778;PMS7003;48821;48.796;2.396;2023-08-01T20:03:31;3.00;3.00;3.00
62778;PMS7003;48821;48.796;2.396;2023-08-01T20:04:42;4.00;4.00;3.00
62778;PMS7003;48821;48.796;2.396;2023-08-01T20:05:59;6.00;4.00;3.00
62778;PMS7003;48821;48.796;2.396;2023-08-01T20:07:10;3.67;3.00;2.67
62778;PMS7003;48821;48.796;2.396;2023-08-01T20:08:21;4.67;4.67;4.00
62778;PMS7003;48821;48.796;2.396;2023-08-01T20:09:32;4.00;4.00;3.00
62778;PMS7003;48821;48.796;2.396;2023-08-01T20:10:43;3.67;3.67;3.00
62778;PMS7003;48821;48.796;2.396;2023-08-01T20:11:54;3.00;3.00;2.00
62778;PMS7003;48821;48.796;2.396;2023-08-01T20:13:05;4.33;4.33;3.00
62778;PMS7003;48821;48.796;2.396;2023-08-01T20:14:16;4.00;2.33;2.00
62778;PMS7003;48821;48.796;2.396;2023-08-01T20:15:27;4.00;4.00;3.00
62778;PMS7003;48821;48.796;2.396;2023-08-01T20:16:37;4.33;3.67;2.67
62778;PMS7003;48821;48.796;2.396;2023-08-01T20:17:48;4.00;3.00;2.00
62778;PMS7003;48821;48.796;2.396;2023-08-01T20:18:59;3.33;3.00;2.33
62778;PMS7003;48821;48.796;2.396;2023-08-01T20:20:10;3.00;3.00;2.00
62778;PMS7003;48821;48.796;2.396;2023-08-01T20:21:21;5.00;4.00;3.00
62778;PMS7003;48821;48.796;2.396;2023-08-01T20:22:32;7.00;5.00;3.00
62778;PMS7003;48821;48.796;2.396;2023-08-01T20:23:43;4.00;4.00;3.33
62778;PMS7003;48821;48.796;2.396;2023-08-01T20:24:54;6.00;6.00;4.00
62778;PMS7003;48821;48.796;2.396;2023-08-01T20:26:05;3.67;3.67;3.00
62778;PMS7003;48821;48.796;2.396;2023-08-01T20:27:16;3.67;3.00;2.00